createdAt,value
2015-11-05T00:00:24.829Z,84
2015-11-05T00:01:27.100Z,84
2015-11-05T00:02:23.350Z,84
2015-11-05T00:04:24.324Z,84
2015-11-05T00:08:21.257Z,84
2015-11-05T00:11:18.937Z,84
2015-11-05T00:13:19.958Z,84
2015-11-05T00:15:21.448Z,84
2015-11-05T00:20:14.571Z,84
2015-11-05T00:21:13.810Z,84
2015-11-05T00:22:13.094Z,84
2015-11-05T00:33:10.212Z,84
2015-11-05T00:36:08.172Z,84
2015-11-05T00:38:06.847Z,84
2015-11-05T00:39:06.322Z,84
2015-11-05T00:42:04.807Z,84
2015-11-05T00:43:06.540Z,84
2015-11-05T00:44:06.022Z,84
2015-11-05T00:48:03.940Z,84
2015-11-05T00:49:03.472Z,84
2015-11-05T00:53:03.681Z,84
2015-11-05T00:54:03.261Z,84
2015-11-05T00:56:02.156Z,84
2015-11-05T00:57:01.627Z,84
2015-11-05T00:59:00.602Z,84
2015-11-05T01:01:02.623Z,84
2015-11-05T01:04:00.350Z,84
2015-11-05T01:04:59.836Z,84
2015-11-05T01:06:58.795Z,84
2015-11-05T01:07:58.298Z,84
2015-11-05T01:08:57.769Z,84
2015-11-05T01:10:56.744Z,84
2015-11-05T01:11:56.294Z,84
2015-11-05T01:12:58.030Z,84
2015-11-05T01:15:56.476Z,84
2015-11-05T01:17:55.450Z,84
2015-11-05T01:18:54.937Z,84
2015-11-05T01:19:57.472Z,84
2015-11-05T01:20:53.912Z,84
2015-11-05T01:23:54.982Z,85
2015-11-05T01:24:54.670Z,85
2015-11-05T01:27:53.366Z,85
2015-11-05T01:30:51.843Z,85
2015-11-05T01:32:53.113Z,84
2015-11-05T01:33:52.601Z,84
2015-11-05T01:34:55.119Z,84
2015-11-05T01:35:54.607Z,85
2015-11-05T01:36:51.062Z,85
2015-11-05T01:37:50.534Z,85
2015-11-05T01:39:49.524Z,84
2015-11-05T01:47:47.311Z,84
2015-11-05T01:48:46.673Z,84
2015-11-05T01:50:45.397Z,84
2015-11-05T01:52:46.543Z,84
2015-11-05T01:53:46.045Z,84
2015-11-05T01:54:45.378Z,84
2015-11-05T01:55:44.364Z,84
2015-11-05T01:56:43.976Z,84
2015-11-05T01:57:43.089Z,84
2015-11-05T01:59:41.656Z,84
2015-11-05T02:05:39.467Z,84
2015-11-05T02:07:40.956Z,84
2015-11-05T02:09:36.619Z,84
2015-11-05T02:11:35.139Z,84
2015-11-05T02:15:35.072Z,84
2015-11-05T02:17:34.047Z,84
2015-11-05T02:18:33.299Z,84
2015-11-05T02:19:32.771Z,84
2015-11-05T02:20:32.227Z,84
2015-11-05T02:23:32.594Z,84
2015-11-05T02:24:31.957Z,84
2015-11-05T02:26:30.791Z,84
2015-11-05T02:31:27.507Z,85
2015-11-05T02:35:26.815Z,84
2015-11-05T05:11:06.561Z,84
2015-11-05T05:16:02.809Z,84
2015-11-05T05:19:59.787Z,84
2015-11-05T05:22:00.620Z,126
2015-11-05T05:39:47.685Z,84
2015-11-05T05:40:49.406Z,84
2015-11-05T05:51:41.030Z,87
2015-11-05T05:53:39.113Z,84
2015-11-05T06:13:28.416Z,84
2015-11-05T06:17:25.224Z,84
2015-11-05T06:18:24.429Z,84
2015-11-05T06:36:15.633Z,84
2015-11-05T06:37:14.979Z,84
2015-11-05T06:38:14.216Z,84
2015-11-05T06:43:12.902Z,84
2015-11-05T07:00:07.307Z,85
2015-11-05T07:02:06.422Z,85
2015-11-05T07:03:05.753Z,85
2015-11-05T07:15:02.252Z,85
2015-11-05T07:18:00.573Z,85
2015-11-05T07:21:01.456Z,84
2015-11-05T07:22:00.568Z,84
2015-11-05T07:24:58.373Z,84
2015-11-05T07:29:56.938Z,85
2015-11-05T07:33:53.950Z,85
2015-11-05T07:36:51.520Z,85
2015-11-05T07:37:50.850Z,85
2015-11-05T07:38:50.135Z,85
2015-11-05T07:39:51.888Z,85
2015-11-05T07:40:51.094Z,85
2015-11-05T07:41:53.221Z,84
2015-11-05T08:08:24.668Z,93
2015-11-05T08:16:38.658Z,83
2015-11-05T08:17:40.943Z,83
2015-11-05T08:18:43.320Z,83
2015-11-05T08:19:45.041Z,83
2015-11-05T08:20:47.326Z,83
2015-11-05T08:22:52.034Z,83
2015-11-05T08:23:54.224Z,83
2015-11-05T08:25:58.949Z,83
2015-11-05T08:28:02.907Z,83
2015-11-05T08:29:05.004Z,83
2015-11-05T08:30:06.726Z,83
2015-11-05T08:32:10.559Z,82
2015-11-05T08:33:12.468Z,82
2015-11-05T08:35:15.911Z,82
2015-11-05T08:37:19.495Z,83
2015-11-05T08:40:24.565Z,82
2015-11-05T08:41:25.834Z,82
2015-11-05T08:42:27.101Z,82
2015-11-05T08:43:28.370Z,82
2015-11-05T08:44:29.639Z,82
2015-11-05T08:45:30.642Z,82
2015-11-05T08:48:33.712Z,81
2015-11-05T08:49:34.528Z,81
2015-11-05T08:50:36.265Z,81
2015-11-05T08:51:37.001Z,81
2015-11-05T08:52:37.770Z,81
2015-11-05T08:53:38.523Z,81
2015-11-05T08:55:39.512Z,81
2015-11-05T08:57:40.268Z,80
2015-11-05T08:59:40.806Z,80
2015-11-05T09:08:42.892Z,80
2015-11-05T09:09:42.817Z,80
2015-11-05T09:10:44.414Z,80
2015-11-05T09:11:44.526Z,80
2015-11-05T09:17:43.008Z,80
2015-11-05T09:18:42.495Z,80
2015-11-05T09:19:42.388Z,80
2015-11-05T09:20:43.986Z,80
2015-11-05T09:21:43.847Z,80
2015-11-05T09:23:43.166Z,80
2015-11-05T09:26:42.361Z,80
2015-11-05T09:28:43.210Z,79
2015-11-05T09:31:42.797Z,80
2015-11-05T09:32:42.518Z,80
2015-11-05T09:33:43.646Z,80
2015-11-05T09:34:43.367Z,80
2015-11-05T09:35:41.682Z,80
2015-11-05T09:36:41.404Z,80
2015-11-05T09:38:40.613Z,79
2015-11-05T09:43:40.233Z,79
2015-11-05T09:44:39.671Z,79
2015-11-05T09:46:41.363Z,79
2015-11-05T09:47:37.522Z,79
2015-11-05T09:49:36.249Z,79
2015-11-05T09:50:37.949Z,79
2015-11-05T09:51:37.169Z,79
2015-11-05T09:52:39.432Z,79
2015-11-05T09:53:38.621Z,79
2015-11-05T09:55:34.012Z,79
2015-11-05T09:56:33.230Z,79
2015-11-05T09:57:32.435Z,79
2015-11-05T09:59:30.906Z,79
2015-11-05T10:00:32.628Z,79
2015-11-05T10:01:31.597Z,79
2015-11-05T10:02:33.567Z,79
2015-11-05T10:03:29.492Z,78
2015-11-05T10:04:28.198Z,78
2015-11-05T10:05:26.889Z,78
2015-11-05T10:06:25.594Z,78
2015-11-05T10:07:24.284Z,78
2015-11-05T10:08:22.974Z,78
2015-11-05T10:09:21.728Z,78
2015-11-05T10:10:23.433Z,78
2015-11-05T10:11:22.139Z,78
2015-11-05T10:12:20.829Z,78
2015-11-05T10:13:19.535Z,78
2015-11-05T10:14:18.225Z,78
2015-11-05T10:16:15.360Z,78
2015-11-05T10:17:13.801Z,78
2015-11-05T10:18:12.271Z,78
2015-11-05T10:19:14.587Z,78
2015-11-05T10:20:16.309Z,78
2015-11-05T10:21:18.577Z,78
2015-11-05T10:22:20.876Z,78
2015-11-05T10:23:23.160Z,78
2015-11-05T10:24:25.445Z,78
2015-11-05T10:25:27.728Z,78
2015-11-05T10:26:30.013Z,78
2015-11-05T10:27:32.296Z,78
2015-11-05T10:28:34.564Z,77
2015-11-05T10:29:36.646Z,77
2015-11-05T10:30:38.403Z,77
2015-11-05T10:31:40.390Z,77
2015-11-05T10:32:42.426Z,77
2015-11-05T10:33:44.428Z,77
2015-11-05T10:34:46.196Z,77
2015-11-05T10:35:47.981Z,77
2015-11-05T10:36:49.749Z,77
2015-11-05T10:37:51.767Z,77
2015-11-05T10:38:53.614Z,77
2015-11-05T10:39:55.351Z,77
2015-11-05T10:41:58.825Z,77
2015-11-05T10:44:02.364Z,77
2015-11-05T10:45:04.133Z,77
2015-11-05T10:46:05.900Z,77
2015-11-05T10:47:07.404Z,77
2015-11-05T10:48:08.906Z,77
2015-11-05T10:49:10.426Z,77
2015-11-05T10:50:11.991Z,77
2015-11-05T10:51:13.697Z,77
2015-11-05T10:52:15.215Z,76
2015-11-05T10:53:16.468Z,76
2015-11-05T10:54:17.720Z,76
2015-11-05T10:55:18.990Z,76
2015-11-05T10:56:20.226Z,76
2015-11-05T10:57:21.478Z,76
2015-11-05T10:58:22.731Z,76
2015-11-05T10:59:24.000Z,76
2015-11-05T11:01:27.006Z,76
2015-11-05T11:02:28.259Z,76
2015-11-05T11:03:29.511Z,76
2015-11-05T11:04:30.764Z,76
2015-11-05T11:07:34.256Z,76
2015-11-05T11:08:35.259Z,75
2015-11-05T11:09:35.995Z,76
2015-11-05T11:10:37.045Z,75
2015-11-05T11:11:38.751Z,75
2015-11-05T11:12:39.489Z,75
2015-11-05T11:13:40.225Z,75
2015-11-05T11:15:41.700Z,75
2015-11-05T11:16:42.452Z,75
2015-11-05T11:17:43.174Z,75
2015-11-05T11:18:43.927Z,75
2015-11-05T11:19:44.383Z,75
2015-11-05T11:20:44.932Z,75
2015-11-05T11:21:46.638Z,75
2015-11-05T11:22:47.110Z,75
2015-11-05T11:23:47.347Z,75
2015-11-05T11:24:47.569Z,75
2015-11-05T11:25:47.774Z,75
2015-11-05T11:26:47.996Z,75
2015-11-05T11:27:48.232Z,75
2015-11-05T11:28:48.469Z,75
2015-11-05T11:29:48.691Z,75
2015-11-05T11:30:48.960Z,75
2015-11-05T11:31:50.681Z,75
2015-11-05T11:32:50.902Z,75
2015-11-05T11:33:51.124Z,75
2015-11-05T11:34:51.345Z,75
2015-11-05T11:35:51.566Z,75
2015-11-05T11:36:51.804Z,74
2015-11-05T11:37:51.744Z,74
2015-11-05T11:38:51.715Z,74
2015-11-05T11:39:51.702Z,74
2015-11-05T11:40:51.454Z,74
2015-11-05T11:41:53.161Z,74
2015-11-05T11:42:52.867Z,74
2015-11-05T11:43:52.588Z,74
2015-11-05T11:44:52.294Z,74
2015-11-05T11:45:52.000Z,74
2015-11-05T11:47:51.427Z,74
2015-11-05T11:48:51.134Z,74
2015-11-05T11:49:50.589Z,74
2015-11-05T11:50:50.092Z,74
2015-11-05T11:52:50.988Z,74
2015-11-05T11:53:50.442Z,73
2015-11-05T11:54:49.647Z,73
2015-11-05T11:55:48.837Z,73
2015-11-05T11:56:48.027Z,73
2015-11-05T11:57:47.233Z,73
2015-11-05T11:58:46.423Z,73
2015-11-05T11:59:45.628Z,73
2015-11-05T12:00:44.866Z,73
2015-11-05T12:02:45.778Z,73
2015-11-05T12:03:44.969Z,73
2015-11-05T12:04:44.174Z,73
2015-11-05T12:05:43.364Z,73
2015-11-05T12:06:42.304Z,73
2015-11-05T12:07:41.244Z,73
2015-11-05T12:10:38.127Z,73
2015-11-05T12:11:39.396Z,73
2015-11-05T12:12:38.774Z,73
2015-11-05T12:13:37.713Z,72
2015-11-05T12:15:35.080Z,72
2015-11-05T12:16:33.754Z,72
2015-11-05T12:17:32.444Z,72
2015-11-05T12:18:31.149Z,72
2015-11-05T12:19:29.808Z,72
2015-11-05T12:20:28.561Z,72
2015-11-05T12:23:27.366Z,72
2015-11-05T12:24:25.790Z,72
2015-11-05T12:25:24.216Z,72
2015-11-05T12:27:24.909Z,71
2015-11-05T12:29:29.461Z,72
2015-11-05T12:30:27.948Z,72
2015-11-05T12:31:29.654Z,72
2015-11-05T12:32:28.078Z,72
2015-11-05T12:33:26.503Z,72
2015-11-05T12:34:24.940Z,72
2015-11-05T12:35:23.365Z,72
2015-11-05T12:36:21.806Z,72
2015-11-05T12:37:20.214Z,72
2015-11-05T12:39:17.064Z,72
2015-11-05T12:40:15.551Z,72
2015-11-05T12:41:17.256Z,72
2015-11-05T12:42:15.681Z,72
2015-11-05T12:44:12.545Z,72
2015-11-05T12:45:10.955Z,72
2015-11-05T12:46:09.379Z,72
2015-11-05T12:47:07.819Z,72
2015-11-05T12:48:06.244Z,71
2015-11-05T12:49:08.512Z,71
2015-11-05T12:50:10.844Z,71
2015-11-05T12:51:12.550Z,71
2015-11-05T12:52:14.833Z,71
2015-11-05T12:53:17.102Z,71
2015-11-05T12:54:19.370Z,71
2015-11-05T12:55:21.638Z,71
2015-11-05T12:56:23.906Z,71
2015-11-05T12:57:25.925Z,71
2015-11-05T12:58:27.944Z,71
2015-11-05T12:59:29.946Z,71
2015-11-05T13:01:33.717Z,71
2015-11-05T13:02:35.469Z,71
2015-11-05T13:03:37.238Z,71
2015-11-05T13:04:38.991Z,71
2015-11-05T13:06:42.512Z,71
2015-11-05T13:07:44.265Z,71
2015-11-05T13:08:46.018Z,71
2015-11-05T13:09:47.785Z,71
2015-11-05T13:10:49.601Z,71
2015-11-05T13:11:51.307Z,71
2015-11-05T13:12:53.060Z,71
2015-11-05T13:13:54.813Z,71
2015-11-05T13:15:58.336Z,71
2015-11-05T13:17:00.089Z,70
2015-11-05T13:18:01.591Z,71
2015-11-05T13:19:03.344Z,70
2015-11-05T13:20:04.846Z,70
2015-11-05T13:21:06.396Z,70
2015-11-05T13:23:09.605Z,70
2015-11-05T13:25:12.860Z,71
2015-11-05T13:26:14.629Z,71
2015-11-05T13:27:16.382Z,71
2015-11-05T13:28:18.135Z,71
2015-11-05T13:29:19.903Z,71
2015-11-05T13:30:21.671Z,71
2015-11-05T13:31:23.470Z,71
2015-11-05T13:32:25.161Z,71
2015-11-05T13:33:26.914Z,71
2015-11-05T13:35:30.420Z,71
2015-11-05T13:36:32.187Z,71
2015-11-05T13:37:33.940Z,71
2015-11-05T13:38:35.693Z,71
2015-11-05T13:39:37.461Z,71
2015-11-05T13:40:39.214Z,71
2015-11-05T13:41:41.029Z,71
2015-11-05T13:42:42.720Z,71
2015-11-05T13:43:44.489Z,71
2015-11-05T13:44:46.241Z,71
2015-11-05T13:45:48.009Z,71
2015-11-05T13:46:49.747Z,71
2015-11-05T13:47:51.514Z,70
2015-11-05T13:48:53.002Z,70
2015-11-05T13:49:54.505Z,70
2015-11-05T13:51:57.572Z,70
2015-11-05T13:52:59.278Z,70
2015-11-05T13:54:00.499Z,70
2015-11-05T13:55:02.018Z,70
2015-11-05T13:56:03.255Z,70
2015-11-05T13:58:05.744Z,70
2015-11-05T13:59:06.982Z,70
2015-11-05T14:00:08.218Z,70
2015-11-05T14:01:09.738Z,70
2015-11-05T14:02:11.037Z,70
2015-11-05T14:03:12.711Z,70
2015-11-05T14:04:14.214Z,70
2015-11-05T14:05:15.716Z,70
2015-11-05T14:06:17.219Z,70
2015-11-05T14:07:18.722Z,70
2015-11-05T14:08:20.224Z,70
2015-11-05T14:09:21.713Z,70
2015-11-05T14:10:23.230Z,70
2015-11-05T14:11:24.733Z,70
2015-11-05T14:13:27.973Z,70
2015-11-05T14:15:30.479Z,70
2015-11-05T14:16:31.715Z,70
2015-11-05T14:17:32.968Z,70
2015-11-05T14:18:34.205Z,70
2015-11-05T14:19:35.443Z,70
2015-11-05T14:20:36.945Z,70
2015-11-05T14:21:38.198Z,70
2015-11-05T14:22:39.481Z,70
2015-11-05T14:23:41.187Z,70
2015-11-05T14:25:43.678Z,70
2015-11-05T14:26:44.920Z,70
2015-11-05T14:27:46.156Z,70
2015-11-05T14:28:47.659Z,70
2015-11-05T14:29:49.162Z,70
2015-11-05T14:30:50.664Z,70
2015-11-05T14:31:52.152Z,70
2015-11-05T14:32:53.717Z,70
2015-11-05T14:33:55.423Z,70
2015-11-05T14:35:58.413Z,70
2015-11-05T14:36:59.916Z,70
2015-11-05T14:38:01.418Z,70
2015-11-05T14:39:02.921Z,71
2015-11-05T14:40:04.676Z,71
2015-11-05T14:41:06.444Z,71
2015-11-05T14:42:08.213Z,71
2015-11-05T14:43:10.013Z,71
2015-11-05T14:44:11.719Z,71
2015-11-05T14:45:13.487Z,71
2015-11-05T14:46:15.240Z,71
2015-11-05T14:47:16.992Z,71
2015-11-05T14:49:20.513Z,71
2015-11-05T14:50:22.532Z,71
2015-11-05T14:51:24.565Z,71
2015-11-05T14:52:26.553Z,71
2015-11-05T14:53:28.634Z,71
2015-11-05T14:54:30.340Z,71
2015-11-05T14:55:32.373Z,71
2015-11-05T14:56:34.376Z,71
2015-11-05T14:57:36.645Z,71
2015-11-05T14:58:38.929Z,71
2015-11-05T14:59:41.197Z,71
2015-11-05T15:00:43.482Z,71
2015-11-05T15:02:48.017Z,71
2015-11-05T15:04:52.039Z,71
2015-11-05T15:05:54.323Z,71
2015-11-05T15:06:56.591Z,72
2015-11-05T15:07:55.031Z,72
2015-11-05T15:08:53.440Z,72
2015-11-05T15:09:51.880Z,72
2015-11-05T15:10:50.305Z,72
2015-11-05T15:11:48.729Z,72
2015-11-05T15:12:47.450Z,72
2015-11-05T15:13:46.157Z,72
2015-11-05T15:14:47.862Z,72
2015-11-05T15:15:46.553Z,72
2015-11-05T15:16:45.242Z,72
2015-11-05T15:20:40.754Z,73
2015-11-05T15:21:39.632Z,73
2015-11-05T15:22:38.634Z,73
2015-11-05T15:23:37.637Z,73
2015-11-05T15:24:39.358Z,73
2015-11-05T15:25:38.550Z,73
2015-11-05T15:26:37.737Z,73
2015-11-05T15:27:36.941Z,73
2015-11-05T15:28:35.710Z,73
2015-11-05T15:29:35.339Z,73
2015-11-05T15:31:34.000Z,73
2015-11-05T15:32:33.456Z,73
2015-11-05T15:33:32.974Z,73
2015-11-05T15:34:35.071Z,73
2015-11-05T15:35:34.121Z,74
2015-11-05T15:38:33.269Z,74
2015-11-05T15:39:32.975Z,74
2015-11-05T15:41:32.637Z,74
2015-11-05T15:42:32.608Z,74
2015-11-05T15:43:32.643Z,74
2015-11-05T15:44:34.349Z,74
2015-11-05T15:45:34.335Z,75
2015-11-05T15:46:34.557Z,75
2015-11-05T15:48:35.031Z,75
2015-11-05T15:49:35.237Z,75
2015-11-05T15:51:35.696Z,75
2015-11-05T15:52:36.182Z,75
2015-11-05T15:53:36.716Z,75
2015-11-05T15:54:38.423Z,75
2015-11-05T15:55:38.909Z,75
2015-11-05T15:56:39.662Z,75
2015-11-05T15:57:40.403Z,75
2015-11-05T15:58:41.148Z,75
2015-11-05T15:59:41.886Z,75
2015-11-05T16:00:42.622Z,76
2015-11-05T16:01:43.625Z,76
2015-11-05T16:02:44.628Z,76
2015-11-05T16:03:45.678Z,76
2015-11-05T16:04:47.383Z,76
2015-11-05T16:05:48.636Z,76
2015-11-05T16:06:49.889Z,76
2015-11-05T16:07:51.142Z,76
2015-11-05T16:08:52.394Z,76
2015-11-05T16:09:53.647Z,77
2015-11-05T16:11:56.684Z,77
2015-11-05T16:12:58.203Z,77
2015-11-05T16:13:59.767Z,77
2015-11-05T16:15:01.489Z,77
2015-11-05T16:16:03.241Z,77
2015-11-05T16:17:05.025Z,77
2015-11-05T16:18:06.794Z,77
2015-11-05T16:19:08.562Z,77
2015-11-05T16:20:10.331Z,77
2015-11-05T16:21:12.099Z,77
2015-11-05T16:22:13.680Z,77
2015-11-05T16:23:16.151Z,77
2015-11-05T16:24:18.232Z,78
2015-11-05T16:25:19.954Z,78
2015-11-05T16:26:22.222Z,78
2015-11-05T16:27:24.522Z,78
2015-11-05T16:28:26.808Z,78
2015-11-05T16:29:29.076Z,78
2015-11-05T16:30:31.360Z,78
2015-11-05T16:31:33.645Z,78
2015-11-05T16:33:34.369Z,78
2015-11-05T16:34:32.856Z,78
2015-11-05T16:35:34.577Z,78
2015-11-05T16:36:33.002Z,78
2015-11-05T16:37:31.443Z,78
2015-11-05T16:39:28.570Z,78
2015-11-05T16:41:25.701Z,78
2015-11-05T16:43:23.096Z,78
2015-11-05T16:44:21.849Z,78
2015-11-05T16:45:23.570Z,79
2015-11-05T16:46:22.526Z,79
2015-11-05T16:47:21.467Z,79
2015-11-05T16:48:20.673Z,79
2015-11-05T16:49:19.878Z,79
2015-11-05T16:50:19.084Z,79
2015-11-05T16:51:18.290Z,79
2015-11-05T16:52:17.511Z,79
2015-11-05T16:53:16.717Z,79
2015-11-05T16:54:16.017Z,79
2015-11-05T16:55:17.708Z,79
2015-11-05T16:56:16.928Z,79
2015-11-05T16:57:16.134Z,80
2015-11-05T16:58:15.591Z,80
2015-11-05T17:00:14.533Z,80
2015-11-05T17:02:13.461Z,80
2015-11-05T17:03:13.183Z,80
2015-11-05T17:04:14.372Z,80
2015-11-05T17:05:14.688Z,80
2015-11-05T17:07:14.146Z,80
2015-11-05T17:08:14.133Z,80
2015-11-05T17:09:14.089Z,80
2015-11-05T17:10:14.076Z,80
2015-11-05T17:11:14.047Z,81
2015-11-05T17:12:14.285Z,81
2015-11-05T17:13:14.522Z,81
2015-11-05T17:14:14.822Z,81
2015-11-05T17:15:16.527Z,81
2015-11-05T17:16:16.765Z,81
2015-11-05T17:17:17.001Z,81
2015-11-05T17:18:17.238Z,81
2015-11-05T17:19:17.460Z,81
2015-11-05T17:20:17.697Z,81
2015-11-05T17:21:17.934Z,81
2015-11-05T17:22:18.171Z,81
2015-11-05T17:23:18.409Z,81
2015-11-05T17:24:18.693Z,81
2015-11-05T17:25:20.430Z,81
2015-11-05T17:26:20.917Z,81
2015-11-05T17:27:21.420Z,81
2015-11-05T17:28:21.907Z,81
2015-11-05T17:29:22.409Z,81
2015-11-05T17:30:22.896Z,81
2015-11-05T17:31:23.649Z,81
2015-11-05T17:32:24.402Z,81
2015-11-05T17:33:25.154Z,81
2015-11-05T17:34:25.970Z,81
2015-11-05T17:35:27.676Z,81
2015-11-05T17:36:28.428Z,81
2015-11-05T17:37:29.197Z,81
2015-11-05T17:38:29.934Z,81
2015-11-05T17:39:30.686Z,81
2015-11-05T17:40:31.439Z,81
2015-11-05T17:41:32.176Z,81
2015-11-05T17:42:32.944Z,81
2015-11-05T17:44:34.747Z,82
2015-11-05T17:45:36.453Z,82
2015-11-05T17:46:37.472Z,82
2015-11-05T17:49:40.495Z,82
2015-11-05T17:50:41.763Z,82
2015-11-05T17:51:42.781Z,82
2015-11-05T17:53:45.318Z,82
2015-11-05T17:54:46.618Z,82
2015-11-05T17:55:48.371Z,82
2015-11-05T17:56:49.608Z,82
2015-11-05T17:57:50.877Z,82
2015-11-05T17:58:52.394Z,82
2015-11-05T17:59:53.913Z,82
2015-11-05T18:00:55.431Z,82
2015-11-05T18:01:56.949Z,83
2015-11-05T18:02:58.749Z,83
2015-11-05T18:04:00.518Z,83
2015-11-05T18:05:02.349Z,83
2015-11-05T18:06:04.069Z,83
2015-11-05T18:08:07.621Z,83
2015-11-05T18:11:12.990Z,83
2015-11-05T18:12:14.742Z,83
2015-11-05T18:13:16.557Z,83
2015-11-05T18:15:20.126Z,83
2015-11-05T18:18:25.415Z,83
2015-11-05T18:21:30.751Z,83
2015-11-05T18:22:32.770Z,83
2015-11-05T18:24:36.838Z,83
2015-11-05T18:26:40.656Z,83
2015-11-05T18:28:45.239Z,83
2015-11-05T18:29:47.539Z,83
2015-11-05T18:30:49.839Z,83
2015-11-05T18:31:52.123Z,83
2015-11-05T18:34:59.303Z,83
2015-11-05T18:36:01.367Z,83
2015-11-05T18:37:03.089Z,83
2015-11-05T18:38:05.360Z,83
2015-11-05T18:39:07.659Z,83
2015-11-05T18:41:12.244Z,83
2015-11-05T18:42:14.542Z,83
2015-11-05T18:43:16.827Z,83
2015-11-05T18:47:25.494Z,83
2015-11-05T18:48:27.794Z,83
2015-11-05T18:49:30.068Z,83
2015-11-05T18:50:32.359Z,84
2015-11-05T18:57:25.087Z,84
2015-11-05T19:00:21.154Z,84
2015-11-05T19:01:19.891Z,84
2015-11-05T19:02:18.563Z,84
2015-11-05T19:05:14.677Z,84
2015-11-05T19:06:13.446Z,84
2015-11-05T19:08:13.872Z,84
2015-11-05T19:09:12.592Z,84
2015-11-05T19:10:11.298Z,84
2015-11-05T19:12:09.225Z,84
2015-11-05T19:15:05.592Z,84
2015-11-05T19:16:04.360Z,84
2015-11-05T19:17:06.113Z,84
2015-11-05T19:19:04.026Z,84
2015-11-05T19:21:04.951Z,85
2015-11-05T19:22:01.159Z,85
2015-11-05T19:26:59.797Z,85
2015-11-05T19:27:59.081Z,85
2015-11-05T19:30:56.698Z,85
2015-11-05T19:31:55.920Z,85
2015-11-05T19:32:58.189Z,85
2015-11-05T19:33:57.394Z,85
2015-11-05T19:34:53.569Z,85
2015-11-05T19:36:54.574Z,85
2015-11-05T19:37:54.045Z,85
2015-11-05T19:38:53.517Z,85
2015-11-05T19:39:53.003Z,85
2015-11-05T19:40:52.491Z,85
2015-11-05T19:42:51.447Z,85
2015-11-05T19:44:50.389Z,85
2015-11-05T19:45:49.924Z,85
2015-11-05T19:47:51.132Z,85
2015-11-05T19:49:53.122Z,85
2015-11-05T19:51:49.033Z,85
2015-11-05T19:55:47.763Z,85
2015-11-05T19:56:49.501Z,85
2015-11-05T19:58:48.974Z,85
2015-11-05T20:01:48.202Z,85
2015-11-05T20:02:47.923Z,85
2015-11-05T20:03:47.676Z,85
2015-11-05T20:04:47.382Z,85
2015-11-05T20:05:47.182Z,85
2015-11-05T20:08:48.376Z,85
2015-11-05T20:09:48.114Z,85
2015-11-05T20:10:47.851Z,85
2015-11-05T20:11:47.573Z,85
2015-11-05T20:12:47.325Z,85
2015-11-05T20:13:47.062Z,85
2015-11-05T20:14:46.784Z,85
2015-11-05T20:15:46.615Z,85
2015-11-05T20:16:48.306Z,85
2015-11-05T20:17:48.058Z,85
2015-11-05T20:20:47.769Z,86
2015-11-05T20:22:48.009Z,86
2015-11-05T20:23:48.261Z,86
2015-11-05T20:24:48.498Z,86
2015-11-05T20:25:48.814Z,86
2015-11-05T20:26:50.551Z,86
2015-11-05T20:27:50.788Z,86
2015-11-05T20:28:50.978Z,86
2015-11-05T20:29:51.402Z,86
2015-11-05T20:30:51.718Z,86
2015-11-05T20:32:52.052Z,86
2015-11-05T20:33:52.289Z,86
2015-11-05T20:36:54.563Z,86
2015-11-05T20:37:54.815Z,86
2015-11-05T20:38:55.068Z,86
2015-11-05T20:40:55.557Z,86
2015-11-05T20:41:55.811Z,86
2015-11-05T20:42:56.063Z,86
2015-11-05T20:44:56.585Z,86
2015-11-05T20:45:56.852Z,86
2015-11-05T20:46:58.590Z,86
2015-11-05T20:47:59.108Z,86
2015-11-05T20:50:00.113Z,86
2015-11-05T20:52:01.118Z,86
2015-11-05T20:54:02.109Z,86
2015-11-05T20:56:03.192Z,86
2015-11-05T20:57:04.914Z,87
2015-11-05T20:58:05.703Z,86
2015-11-05T21:00:06.959Z,86
2015-11-05T21:05:10.519Z,87
2015-11-05T21:08:13.823Z,87
2015-11-05T21:09:14.576Z,87
2015-11-05T21:10:15.361Z,87
2015-11-05T21:11:16.113Z,87
2015-11-05T21:12:16.866Z,87
2015-11-05T21:13:17.634Z,87
2015-11-05T21:15:19.171Z,87
2015-11-05T21:16:19.970Z,87
2015-11-05T21:17:21.739Z,87
2015-11-05T21:18:22.475Z,87
2015-11-05T21:19:23.244Z,87
2015-11-05T21:21:24.766Z,87
2015-11-05T21:22:25.518Z,87
2015-11-05T21:25:27.823Z,87
2015-11-05T21:26:28.638Z,87
2015-11-05T21:27:30.375Z,87
2015-11-05T21:28:31.394Z,87
2015-11-05T21:29:32.412Z,87
2015-11-05T21:30:33.430Z,87
2015-11-05T21:34:37.254Z,87
2015-11-05T21:36:39.337Z,87
2015-11-05T21:37:41.027Z,87
2015-11-05T21:39:43.111Z,87
2015-11-05T21:40:44.145Z,87
2015-11-05T21:41:45.163Z,87
2015-11-05T21:43:47.200Z,87
2015-11-05T21:47:52.601Z,87
2015-11-05T21:49:54.857Z,87
2015-11-05T21:51:56.910Z,87
2015-11-05T21:52:57.927Z,87
2015-11-05T21:53:59.196Z,87
2015-11-05T21:55:00.214Z,87
2015-11-05T21:56:01.248Z,87
2015-11-05T22:00:06.619Z,87
2015-11-05T22:02:09.172Z,87
2015-11-05T22:04:11.723Z,87
2015-11-05T22:05:12.991Z,87
2015-11-05T22:06:14.276Z,87
2015-11-05T22:07:15.622Z,87
2015-11-05T22:08:17.327Z,87
2015-11-05T22:09:18.612Z,87
2015-11-05T22:11:21.117Z,87
2015-11-05T22:12:22.433Z,87
2015-11-05T22:13:23.733Z,87
2015-11-05T22:14:25.000Z,87
2015-11-05T22:15:26.285Z,87
2015-11-05T22:16:27.552Z,87
2015-11-05T22:17:28.883Z,87
2015-11-05T22:18:30.621Z,87
2015-11-05T22:19:32.233Z,87
2015-11-05T22:20:33.688Z,87
2015-11-05T22:21:35.238Z,87
2015-11-05T22:33:53.896Z,87
2015-11-05T22:34:55.179Z,87
2015-11-05T22:35:56.714Z,87
2015-11-05T22:36:58.249Z,88
2015-11-05T22:38:00.110Z,87
2015-11-05T22:39:01.848Z,87
2015-11-05T22:40:03.381Z,88
2015-11-05T22:41:05.275Z,88
2015-11-05T22:42:06.981Z,88
2015-11-05T22:43:08.767Z,88
2015-11-05T22:44:10.536Z,88
2015-11-05T22:45:12.334Z,88
2015-11-05T22:46:14.103Z,88
2015-11-05T22:47:15.919Z,88
2015-11-05T22:49:19.486Z,88
2015-11-05T22:50:21.270Z,88
2015-11-05T22:51:23.086Z,88
2015-11-05T22:52:24.853Z,88
2015-11-05T22:53:26.669Z,88
2015-11-05T22:54:28.453Z,88
2015-11-05T22:55:30.222Z,88
2015-11-05T22:56:32.022Z,88
2015-11-05T22:57:33.805Z,88
2015-11-05T22:58:35.667Z,88
2015-11-05T22:59:37.404Z,88
2015-11-05T23:00:39.189Z,88
2015-11-05T23:01:40.988Z,88
2015-11-05T23:02:42.788Z,88
2015-11-05T23:03:44.556Z,88
2015-11-05T23:05:48.155Z,88
2015-11-05T23:06:49.923Z,88
2015-11-05T23:07:51.724Z,88
2015-11-05T23:08:53.569Z,88
2015-11-05T23:09:55.321Z,88
2015-11-05T23:10:57.090Z,88
2015-11-05T23:11:58.874Z,88
2015-11-05T23:13:00.674Z,88
2015-11-05T23:14:02.474Z,88
2015-11-05T23:15:04.258Z,88
2015-11-05T23:16:06.277Z,88
2015-11-05T23:18:09.657Z,88
2015-11-05T23:19:11.487Z,88
2015-11-05T23:22:16.824Z,88
2015-11-05T23:26:24.709Z,88
2015-11-05T23:27:26.759Z,88
2015-11-05T23:28:28.809Z,88
2015-11-05T23:29:30.936Z,89
2015-11-05T23:31:34.957Z,89
2015-11-05T23:34:41.997Z,89
2015-11-05T23:37:48.726Z,89
2015-11-05T23:41:57.503Z,89
2015-11-05T23:45:04.433Z,89
2015-11-05T23:46:06.702Z,89
2015-11-05T23:47:09.016Z,89
2015-11-05T23:50:15.977Z,89
2015-11-05T23:52:16.801Z,89
2015-11-05T23:55:15.434Z,89
2015-11-05T23:56:13.874Z,89
2015-11-05T23:57:12.330Z,89
2015-11-05T23:58:10.802Z,89
